Time;durP1;ratioP1;P1;durP2;ratioP2;P2;SDS_P1;SDS_P2;PMS_P1;PMS_P2;Temp;Humidity;BMP_temperature;BMP_pressure;BME280_temperature;BME280_humidity;BME280_pressure;Samples;Min_cycle;Max_cycle;Signal;HPM_P1;HPM_P2
2022/03/01 00:01:48;;;;;;;20.25;8.45;;;-2.00;99.90;;;;;;5008910;28;20161;-74
2022/03/01 00:04:14;;;;;;;17.08;6.90;;;-2.40;99.90;;;;;;5008896;28;20049;-73
2022/03/01 00:06:40;;;;;;;11.73;5.97;;;-2.10;99.90;;;;;;5007347;28;20116;-74
2022/03/01 00:09:05;;;;;;;10.00;5.72;;;-2.10;99.90;;;;;;5008058;28;20025;-74
2022/03/01 00:11:32;;;;;;;13.85;6.40;;;-1.50;99.90;;;;;;5007287;28;20679;-73
2022/03/01 00:13:58;;;;;;;13.98;6.00;;;-1.40;99.90;;;;;;5007709;28;20026;-73
2022/03/01 00:16:24;;;;;;;13.35;5.82;;;-1.00;99.90;;;;;;5006296;28;20036;-73
2022/03/01 00:18:50;;;;;;;12.68;5.68;;;-1.30;99.90;;;;;;5007612;28;20386;-73
2022/03/01 00:21:16;;;;;;;15.85;6.97;;;-0.30;99.90;;;;;;5006821;28;20057;-74
2022/03/01 00:23:42;;;;;;;15.25;5.63;;;-0.70;99.90;;;;;;5007481;28;20029;-73
2022/03/01 00:26:08;;;;;;;12.25;6.45;;;-0.30;99.90;;;;;;5006262;28;20037;-72
2022/03/01 00:28:34;;;;;;;12.70;5.70;;;-0.30;99.90;;;;;;5008683;28;20104;-72
2022/03/01 00:31:00;;;;;;;16.63;5.70;;;0.00;99.90;;;;;;5007115;28;20105;-72
2022/03/01 00:33:26;;;;;;;15.73;6.22;;;-0.10;99.90;;;;;;5006988;28;20109;-73
2022/03/01 00:35:52;;;;;;;16.33;5.88;;;-0.10;99.90;;;;;;5006544;28;20370;-72
2022/03/01 00:38:17;;;;;;;15.23;5.60;;;-0.10;99.90;;;;;;5006580;28;20022;-72
2022/03/01 00:40:43;;;;;;;12.73;5.90;;;-0.20;99.90;;;;;;5006471;28;20456;-72
2022/03/01 00:43:09;;;;;;;11.02;5.15;;;-0.20;99.90;;;;;;5007576;28;20449;-73
2022/03/01 00:45:35;;;;;;;11.63;5.47;;;-0.20;99.90;;;;;;5007023;28;20140;-74
2022/03/01 00:48:00;;;;;;;13.90;5.82;;;-0.20;99.90;;;;;;5006143;28;20088;-73
2022/03/01 00:50:26;;;;;;;15.27;5.85;;;-0.10;99.90;;;;;;5006140;28;20294;-74
2022/03/01 00:52:52;;;;;;;13.63;5.63;;;-0.20;99.90;;;;;;5005592;28;20474;-75
2022/03/01 00:55:17;;;;;;;15.50;5.38;;;-0.30;99.90;;;;;;5005667;28;20073;-75
2022/03/01 00:57:43;;;;;;;15.10;5.85;;;-0.40;99.90;;;;;;5007087;28;20029;-72
2022/03/01 01:00:10;;;;;;;13.27;5.80;;;-0.10;99.90;;;;;;5006724;28;20486;-74
2022/03/01 01:02:36;;;;;;;12.05;5.53;;;-0.50;99.90;;;;;;5006177;28;20018;-72
2022/03/01 01:05:01;;;;;;;15.02;6.28;;;-0.60;99.90;;;;;;5006282;28;20470;-73
2022/03/01 01:07:27;;;;;;;14.13;6.05;;;-0.60;99.90;;;;;;5005159;28;20042;-73
2022/03/01 01:09:53;;;;;;;10.65;6.72;;;-0.70;99.90;;;;;;5006176;28;20061;-74
2022/03/01 01:12:18;;;;;;;13.63;5.32;;;-0.70;99.90;;;;;;5005790;28;20057;-73
2022/03/01 01:14:44;;;;;;;9.75;4.95;;;-0.70;99.90;;;;;;5006053;28;20029;-73
2022/03/01 01:17:10;;;;;;;14.43;5.57;;;-0.70;99.90;;;;;;5004620;28;20493;-72
2022/03/01 01:19:36;;;;;;;13.45;5.22;;;-0.60;99.90;;;;;;5005767;28;20030;-73
2022/03/01 01:24:47;;;;;;;9.88;5.32;;;-0.50;99.90;;;;;;5005697;28;20036;-72
2022/03/01 01:27:13;;;;;;;7.72;4.32;;;-0.20;99.90;;;;;;5007000;28;20125;-74
2022/03/01 01:29:38;;;;;;;11.32;6.00;;;-0.20;99.90;;;;;;5009799;28;20097;-74
2022/03/01 01:32:04;;;;;;;11.75;5.60;;;-0.30;99.90;;;;;;5009407;28;20113;-74
2022/03/01 01:34:30;;;;;;;10.57;5.20;;;-0.50;99.90;;;;;;5009127;28;20045;-73
2022/03/01 01:36:56;;;;;;;13.63;5.05;;;-0.60;99.90;;;;;;5007475;28;20358;-74
2022/03/01 01:39:22;;;;;;;14.85;6.97;;;-0.40;99.90;;;;;;5009517;28;20026;-73
2022/03/01 01:41:47;;;;;;;15.27;6.43;;;-0.70;99.90;;;;;;5009649;28;20029;-74
2022/03/01 01:44:13;;;;;;;13.80;6.15;;;-0.30;99.90;;;;;;5011755;28;20482;-73
2022/03/01 01:46:39;;;;;;;9.50;4.45;;;-0.70;99.90;;;;;;5009394;28;20057;-72
2022/03/01 01:49:05;;;;;;;11.00;5.47;;;-0.50;99.90;;;;;;5009084;28;20475;-73
2022/03/01 01:51:30;;;;;;;12.77;6.03;;;-0.70;99.90;;;;;;5008610;28;20029;-75
2022/03/01 01:53:56;;;;;;;15.63;5.68;;;-0.80;99.90;;;;;;5015979;28;20018;-73
2022/03/01 01:56:22;;;;;;;14.52;6.95;;;-0.60;99.90;;;;;;5011440;28;20029;-73
2022/03/01 01:58:48;;;;;;;16.02;5.28;;;-0.70;99.90;;;;;;5009082;28;20041;-73
2022/03/01 02:01:14;;;;;;;12.32;5.25;;;-0.30;99.90;;;;;;5009459;28;20490;-74
2022/03/01 02:03:40;;;;;;;13.35;5.55;;;-0.90;99.90;;;;;;5009962;28;20014;-73
2022/03/01 02:06:05;;;;;;;12.40;5.63;;;-0.80;99.90;;;;;;5009803;28;20033;-73
2022/03/01 02:08:33;;;;;;;10.68;5.22;;;-0.50;99.90;;;;;;5010987;28;20358;-73
2022/03/01 02:10:59;;;;;;;8.02;4.32;;;-1.40;99.90;;;;;;5012230;28;20106;-73
2022/03/01 02:13:25;;;;;;;10.77;5.65;;;-1.50;99.90;;;;;;5012673;28;20036;-73
2022/03/01 02:15:52;;;;;;;12.18;5.15;;;-0.30;99.90;;;;;;5011425;28;20046;-73
2022/03/01 02:18:18;;;;;;;11.88;5.07;;;-1.10;99.90;;;;;;5013069;28;20053;-74
2022/03/01 02:20:44;;;;;;;17.50;6.43;;;-2.00;99.90;;;;;;5013929;28;20460;-74
2022/03/01 02:23:10;;;;;;;14.63;6.07;;;-2.20;99.90;;;;;;5011186;28;20486;-73
2022/03/01 02:25:36;;;;;;;9.88;5.38;;;-1.50;99.90;;;;;;5012707;28;20041;-74
2022/03/01 02:28:02;;;;;;;10.05;4.53;;;-2.20;99.90;;;;;;5012678;28;20018;-73
2022/03/01 02:30:28;;;;;;;12.10;5.72;;;-2.40;99.90;;;;;;5011558;28;20030;-74
2022/03/01 02:32:53;;;;;;;11.50;5.00;;;-2.20;99.90;;;;;;5013708;28;20071;-74
2022/03/01 02:35:22;;;;;;;12.50;6.22;;;-2.40;99.90;;;;;;5012787;28;20026;-73
2022/03/01 02:37:49;;;;;;;12.60;5.75;;;-1.70;99.90;;;;;;5012161;28;20379;-73
2022/03/01 02:40:16;;;;;;;13.52;5.70;;;-2.50;99.90;;;;;;5011488;28;20145;-74
2022/03/01 02:42:44;;;;;;;11.48;5.60;;;-2.70;99.90;;;;;;5012901;28;20049;-73
2022/03/01 02:45:13;;;;;;;12.38;5.32;;;-2.70;99.90;;;;;;5014153;28;20029;-75
2022/03/01 02:47:43;;;;;;;11.45;5.20;;;-2.20;99.90;;;;;;5013362;28;20030;-73
2022/03/01 02:50:11;;;;;;;13.45;6.05;;;-1.80;99.90;;;;;;5011759;28;20067;-75
2022/03/01 02:52:37;;;;;;;10.60;4.95;;;-2.40;99.90;;;;;;5012442;28;20030;-73
2022/03/01 02:55:04;;;;;;;9.77;5.30;;;-2.80;99.90;;;;;;5012056;28;20476;-73
2022/03/01 02:57:30;;;;;;;10.88;4.90;;;-2.90;99.90;;;;;;5011287;28;20033;-73
2022/03/01 02:59:56;;;;;;;12.25;5.82;;;-3.10;99.90;;;;;;5012362;28;20028;-73
2022/03/01 03:02:22;;;;;;;11.80;5.13;;;-2.90;99.90;;;;;;5012513;28;20029;-76
2022/03/01 03:04:48;;;;;;;12.98;5.43;;;-2.80;99.90;;;;;;5012551;28;20418;-74
2022/03/01 03:07:14;;;;;;;7.63;4.63;;;-2.40;99.90;;;;;;5012413;28;20398;-75
2022/03/01 03:09:40;;;;;;;12.95;5.60;;;-2.50;99.90;;;;;;5012769;28;20026;-73
2022/03/01 03:12:06;;;;;;;10.45;5.10;;;-2.80;99.90;;;;;;5012609;28;20104;-73
2022/03/01 03:14:32;;;;;;;12.77;6.38;;;-3.50;99.90;;;;;;5012409;28;20049;-74
2022/03/01 03:17:00;;;;;;;14.07;4.43;;;-3.60;99.90;;;;;;5011228;28;20479;-74
2022/03/01 03:19:26;;;;;;;10.10;4.75;;;-3.80;99.90;;;;;;5012186;28;20026;-74
2022/03/01 03:21:51;;;;;;;10.35;5.75;;;-3.10;99.90;;;;;;5010459;28;20125;-74
2022/03/01 03:24:19;;;;;;;12.25;5.68;;;-3.40;99.90;;;;;;5012126;28;20030;-74
2022/03/01 03:26:45;;;;;;;13.00;5.65;;;-4.00;99.90;;;;;;5012163;28;20100;-75
2022/03/01 03:29:12;;;;;;;14.48;5.05;;;-4.00;99.90;;;;;;5010979;28;20379;-74
2022/03/01 03:31:40;;;;;;;12.40;4.93;;;-3.90;99.90;;;;;;5011582;28;20018;-74
2022/03/01 03:34:08;;;;;;;14.18;5.60;;;-2.70;99.90;;;;;;5011688;28;20029;-74
2022/03/01 03:36:35;;;;;;;12.65;5.72;;;-4.00;99.90;;;;;;5011211;28;20036;-73
2022/03/01 03:39:03;;;;;;;8.90;4.65;;;-3.10;99.90;;;;;;5011770;28;20157;-74
2022/03/01 03:41:31;;;;;;;10.05;4.43;;;-2.60;99.90;;;;;;5011815;28;20380;-74
2022/03/01 03:43:59;;;;;;;10.15;4.72;;;-3.20;99.90;;;;;;5026127;28;20042;-73
2022/03/01 03:46:25;;;;;;;9.13;4.75;;;-3.70;99.90;;;;;;5011278;28;20041;-73
2022/03/01 03:48:52;;;;;;;11.65;5.35;;;-4.30;99.90;;;;;;5011175;28;20022;-75
2022/03/01 03:51:18;;;;;;;10.25;5.00;;;-4.20;99.90;;;;;;5011116;28;20033;-74
2022/03/01 03:53:44;;;;;;;10.38;4.90;;;-3.50;99.90;;;;;;5011285;28;20056;-73
2022/03/01 03:56:11;;;;;;;10.45;4.07;;;-3.10;99.90;;;;;;5010930;28;20022;-74
2022/03/01 03:58:37;;;;;;;8.13;4.43;;;-3.80;99.90;;;;;;5026164;28;20021;-73
2022/03/01 04:01:03;;;;;;;11.20;5.68;;;-2.70;99.90;;;;;;5011569;28;20045;-76
2022/03/01 04:03:30;;;;;;;14.27;4.72;;;-3.90;99.90;;;;;;5011424;28;20052;-75
2022/03/01 04:05:55;;;;;;;14.32;4.65;;;-3.10;99.90;;;;;;5011473;28;20029;-74
2022/03/01 04:08:21;;;;;;;15.60;5.38;;;-3.20;99.90;;;;;;5012148;28;20026;-77
2022/03/01 04:10:47;;;;;;;10.27;5.00;;;-3.20;99.90;;;;;;5011297;28;20087;-73
2022/03/01 04:13:13;;;;;;;11.80;4.85;;;-2.60;99.90;;;;;;5012929;28;20021;-75
2022/03/01 04:15:39;;;;;;;9.68;5.10;;;-3.00;99.90;;;;;;5011970;28;20242;-77
2022/03/01 04:18:06;;;;;;;15.07;5.18;;;-3.90;99.90;;;;;;5013175;28;20484;-75
2022/03/01 04:20:31;;;;;;;12.27;5.82;;;-3.80;99.90;;;;;;5012343;28;20036;-75
2022/03/01 04:22:57;;;;;;;12.20;4.95;;;-3.60;99.90;;;;;;5013487;28;20026;-73
2022/03/01 04:25:23;;;;;;;9.77;4.90;;;-2.90;99.90;;;;;;5014702;28;20531;-77
2022/03/01 04:27:50;;;;;;;13.15;5.00;;;-3.00;99.90;;;;;;5016403;28;20038;-73
2022/03/01 04:30:16;;;;;;;17.65;5.22;;;-3.00;99.90;;;;;;5016886;28;20382;-77
2022/03/01 04:32:43;;;;;;;7.78;5.05;;;-2.90;99.90;;;;;;5016264;28;20029;-75
2022/03/01 04:35:10;;;;;;;17.23;4.97;;;-2.50;99.90;;;;;;5015828;28;20022;-77
2022/03/01 04:37:38;;;;;;;11.70;5.60;;;-2.50;99.90;;;;;;5013446;28;20029;-77
2022/03/01 04:40:06;;;;;;;12.75;5.50;;;-2.80;99.90;;;;;;5012294;28;20037;-75
2022/03/01 04:42:32;;;;;;;11.68;5.15;;;-2.90;99.90;;;;;;5013966;28;20030;-75
2022/03/01 04:44:59;;;;;;;12.40;5.65;;;-3.10;99.90;;;;;;5013848;28;20034;-75
2022/03/01 04:47:25;;;;;;;12.95;4.68;;;-2.50;99.90;;;;;;5011095;28;20116;-73
2022/03/01 04:49:51;;;;;;;27.30;5.65;;;-3.10;99.90;;;;;;5013231;28;20496;-77
2022/03/01 04:52:17;;;;;;;10.95;4.70;;;-2.80;99.90;;;;;;5011912;28;20154;-75
2022/03/01 04:54:43;;;;;;;12.85;5.43;;;-3.00;99.90;;;;;;5011576;28;20062;-75
2022/03/01 04:57:09;;;;;;;11.63;5.32;;;-3.10;99.90;;;;;;5011756;28;20080;-75
2022/03/01 04:59:35;;;;;;;9.55;4.32;;;-3.80;99.90;;;;;;5012073;28;20033;-74
2022/03/01 05:02:01;;;;;;;12.05;5.63;;;-3.20;99.90;;;;;;5012382;28;20029;-74
2022/03/01 05:04:27;;;;;;;11.93;4.43;;;-4.30;99.90;;;;;;5013256;28;20026;-74
2022/03/01 05:06:53;;;;;;;12.80;5.57;;;-4.40;99.90;;;;;;5013869;28;20062;-73
2022/03/01 05:09:21;;;;;;;8.73;4.70;;;-4.40;99.90;;;;;;5014155;28;20453;-73
2022/03/01 05:11:48;;;;;;;9.90;4.78;;;-3.50;99.90;;;;;;5014231;28;20030;-73
2022/03/01 05:14:13;;;;;;;10.60;5.00;;;-4.50;99.90;;;;;;5014201;28;20030;-74
2022/03/01 05:16:39;;;;;;;13.57;5.30;;;-3.20;99.90;;;;;;5013667;28;20026;-74
2022/03/01 05:19:06;;;;;;;12.32;5.13;;;-2.80;99.90;;;;;;5013925;28;20029;-74
2022/03/01 05:21:34;;;;;;;14.63;5.15;;;-4.50;99.90;;;;;;5013776;28;20064;-73
2022/03/01 05:23:59;;;;;;;13.27;5.95;;;-4.50;99.90;;;;;;5016542;28;20022;-74
2022/03/01 05:26:25;;;;;;;12.45;5.63;;;-3.10;99.90;;;;;;5014298;28;20030;-74
2022/03/01 05:28:51;;;;;;;16.02;5.88;;;-2.70;99.90;;;;;;5013152;28;20447;-74
2022/03/01 05:31:19;;;;;;;16.08;5.88;;;-3.30;99.90;;;;;;5013971;28;20029;-74
2022/03/01 05:33:46;;;;;;;16.83;5.90;;;-3.30;99.90;;;;;;5015740;28;20034;-73
2022/03/01 05:36:13;;;;;;;13.35;5.35;;;-4.30;99.90;;;;;;5015938;28;20021;-74
2022/03/01 05:38:39;;;;;;;15.73;5.03;;;-3.50;99.90;;;;;;5015504;28;20509;-74
2022/03/01 05:41:04;;;;;;;11.35;5.43;;;-4.60;99.90;;;;;;5015430;28;20029;-73
2022/03/01 05:43:31;;;;;;;10.82;4.82;;;-3.50;99.90;;;;;;5015020;28;20049;-74
2022/03/01 05:45:57;;;;;;;11.57;4.65;;;-2.80;99.90;;;;;;5014994;28;20049;-74
2022/03/01 05:48:23;;;;;;;10.15;4.68;;;-4.70;99.90;;;;;;5015367;28;20026;-74
2022/03/01 05:50:48;;;;;;;9.82;5.75;;;-4.50;99.90;;;;;;5013680;28;20084;-74
2022/03/01 05:53:15;;;;;;;9.35;4.40;;;-4.30;99.90;;;;;;5013733;28;20104;-74
2022/03/01 05:55:41;;;;;;;11.80;5.63;;;-3.00;99.90;;;;;;5014884;28;20565;-73
2022/03/01 05:58:06;;;;;;;11.40;4.45;;;-3.00;99.90;;;;;;5015081;28;20501;-74
2022/03/01 06:00:32;;;;;;;6.90;4.30;;;-3.60;99.90;;;;;;5014972;28;20058;-74
2022/03/01 06:02:58;;;;;;;11.10;5.07;;;-2.70;99.90;;;;;;5014680;28;20363;-74
2022/03/01 06:05:24;;;;;;;13.38;5.45;;;-4.10;99.90;;;;;;5012573;28;20025;-73
2022/03/01 06:07:49;;;;;;;12.85;4.78;;;-3.40;99.90;;;;;;5012571;28;20026;-73
2022/03/01 06:10:15;;;;;;;16.00;5.18;;;-4.20;99.90;;;;;;5011928;28;20029;-74
2022/03/01 06:12:41;;;;;;;7.20;3.90;;;-2.90;99.90;;;;;;5012086;28;20120;-73
2022/03/01 06:15:07;;;;;;;12.93;4.90;;;-3.40;99.90;;;;;;5014431;28;20032;-74
2022/03/01 06:17:33;;;;;;;11.40;4.97;;;-4.10;99.90;;;;;;5013283;28;20025;-74
2022/03/01 06:19:59;;;;;;;10.60;4.07;;;-2.90;99.90;;;;;;5016333;28;20021;-74
2022/03/01 06:22:25;;;;;;;10.73;5.38;;;-3.40;99.90;;;;;;5012300;28;20054;-72
2022/03/01 06:24:51;;;;;;;13.02;4.47;;;-4.20;99.90;;;;;;5015389;28;20109;-72
2022/03/01 06:27:17;;;;;;;7.88;4.30;;;-4.10;99.90;;;;;;5013006;28;20030;-73
2022/03/01 06:29:43;;;;;;;13.50;4.78;;;-3.10;99.90;;;;;;5023656;28;20207;-74
2022/03/01 06:32:08;;;;;;;11.52;4.60;;;-2.30;99.90;;;;;;5024067;28;20029;-73
2022/03/01 06:34:34;;;;;;;9.85;4.65;;;-2.70;99.90;;;;;;5017882;28;20026;-73
2022/03/01 06:37:00;;;;;;;9.25;4.53;;;-3.10;99.90;;;;;;5014183;28;20089;-74
2022/03/01 06:39:26;;;;;;;11.68;4.85;;;-3.50;99.90;;;;;;5015698;28;20030;-73
2022/03/01 06:41:52;;;;;;;12.05;4.90;;;-4.10;99.90;;;;;;5011858;28;20076;-73
2022/03/01 06:44:18;;;;;;;13.18;5.82;;;-4.00;99.90;;;;;;5011670;28;20046;-73
2022/03/01 06:46:44;;;;;;;11.38;4.38;;;-2.90;99.90;;;;;;5012313;28;20052;-73
2022/03/01 06:49:12;;;;;;;8.77;4.10;;;-3.40;99.90;;;;;;5012393;28;20022;-73
2022/03/01 06:51:38;;;;;;;10.23;4.90;;;-4.00;99.90;;;;;;5011176;28;20022;-72
2022/03/01 06:54:04;;;;;;;10.48;4.13;;;-4.20;99.90;;;;;;5012400;28;20121;-73
2022/03/01 06:56:29;;;;;;;10.60;5.28;;;-3.50;99.90;;;;;;5011900;28;20370;-73
2022/03/01 06:58:56;;;;;;;9.15;4.43;;;-3.90;99.90;;;;;;5012214;28;20022;-73
2022/03/01 07:01:22;;;;;;;13.75;5.60;;;-3.40;99.90;;;;;;5011815;28;20545;-73
2022/03/01 07:03:48;;;;;;;13.68;4.40;;;-3.50;99.90;;;;;;5014232;28;20018;-72
2022/03/01 07:06:14;;;;;;;13.02;4.95;;;-3.60;99.90;;;;;;5015679;28;20120;-73
2022/03/01 07:08:40;;;;;;;18.17;4.65;;;-2.10;99.90;;;;;;5015743;28;20105;-73
2022/03/01 07:11:05;;;;;;;10.32;5.18;;;-2.60;99.90;;;;;;5016191;28;20188;-73
2022/03/01 07:13:31;;;;;;;11.98;5.30;;;-2.60;99.90;;;;;;5012391;28;20037;-73
2022/03/01 07:15:57;;;;;;;10.88;4.97;;;-3.10;99.90;;;;;;5013955;28;20073;-73
2022/03/01 07:18:23;;;;;;;12.20;5.13;;;-2.40;99.90;;;;;;5015323;28;20471;-72
2022/03/01 07:20:48;;;;;;;20.52;9.07;;;-2.80;99.90;;;;;;5015243;28;20018;-73
2022/03/01 07:23:14;;;;;;;18.00;7.35;;;-2.30;99.90;;;;;;5015072;28;20443;-73
2022/03/01 07:25:40;;;;;;;21.73;7.25;;;-2.40;99.90;;;;;;5013870;28;20033;-75
2022/03/01 07:28:06;;;;;;;16.80;7.82;;;-2.20;99.90;;;;;;5015385;28;20029;-75
2022/03/01 07:30:32;;;;;;;27.38;10.13;;;-1.50;99.90;;;;;;5013682;28;20093;-73
2022/03/01 07:32:59;;;;;;;16.75;8.05;;;-1.40;99.90;;;;;;5027606;28;20030;-73
2022/03/01 07:35:25;;;;;;;16.90;7.80;;;-1.30;99.90;;;;;;5011517;28;20097;-73
2022/03/01 07:37:52;;;;;;;21.73;9.10;;;-1.30;99.90;;;;;;5013815;28;20447;-73
2022/03/01 07:40:20;;;;;;;14.20;8.02;;;-1.40;99.90;;;;;;5013360;28;20026;-73
2022/03/01 07:42:47;;;;;;;18.70;7.00;;;-1.30;99.90;;;;;;5011607;28;20510;-72
2022/03/01 07:45:12;;;;;;;19.40;7.80;;;-1.10;99.90;;;;;;5010834;28;20041;-73
2022/03/01 07:47:38;;;;;;;18.73;7.75;;;-0.80;99.90;;;;;;5009225;28;20399;-73
2022/03/01 07:50:06;;;;;;;23.13;9.65;;;-0.50;99.90;;;;;;5009246;28;20641;-73
2022/03/01 07:52:32;;;;;;;15.02;7.63;;;-0.20;99.90;;;;;;5010716;28;20022;-72
2022/03/01 07:54:58;;;;;;;19.52;8.13;;;0.00;99.90;;;;;;5009516;28;20037;-74
2022/03/01 07:57:23;;;;;;;17.52;6.20;;;0.10;99.90;;;;;;5007888;28;20527;-72
2022/03/01 07:59:49;;;;;;;30.45;10.88;;;0.40;99.90;;;;;;5008815;28;20040;-73
2022/03/01 08:02:14;;;;;;;21.30;8.95;;;0.60;99.90;;;;;;5009931;28;20475;-72
2022/03/01 08:04:41;;;;;;;16.58;8.10;;;0.90;99.90;;;;;;5008235;28;20092;-72
2022/03/01 08:07:11;;;;;;;18.55;8.13;;;1.10;99.90;;;;;;5008022;28;20057;-72
2022/03/01 08:09:38;;;;;;;18.75;7.22;;;1.80;99.90;;;;;;5009927;28;20030;-72
2022/03/01 08:12:06;;;;;;;13.77;6.88;;;1.40;99.90;;;;;;5009656;28;20478;-73
2022/03/01 08:14:32;;;;;;;15.85;7.50;;;1.60;99.00;;;;;;5008638;28;20474;-73
2022/03/01 08:16:59;;;;;;;17.10;6.15;;;1.70;97.70;;;;;;5008834;28;20022;-73
2022/03/01 08:19:25;;;;;;;12.88;5.70;;;1.90;93.30;;;;;;5008203;28;20482;-73
2022/03/01 08:21:50;;;;;;;17.95;6.78;;;2.10;95.30;;;;;;5009323;28;20033;-72
2022/03/01 08:24:16;;;;;;;14.02;6.88;;;2.20;94.00;;;;;;5009687;28;20024;-72
2022/03/01 08:26:42;;;;;;;14.48;6.82;;;2.30;92.50;;;;;;5009473;28;20041;-73
2022/03/01 08:29:08;;;;;;;15.88;6.80;;;2.20;90.60;;;;;;5009888;28;20493;-73
2022/03/01 08:31:36;;;;;;;16.35;6.25;;;2.20;90.40;;;;;;5010187;28;20481;-72
2022/03/01 08:34:02;;;;;;;9.73;5.68;;;2.30;87.90;;;;;;5010226;28;20044;-73
2022/03/01 08:36:27;;;;;;;10.57;5.85;;;2.40;89.10;;;;;;5008075;28;20033;-72
2022/03/01 08:38:53;;;;;;;11.02;6.10;;;2.50;87.80;;;;;;5014125;28;20433;-73
2022/03/01 08:41:19;;;;;;;10.82;5.32;;;2.70;84.10;;;;;;5014453;28;20103;-72
2022/03/01 08:43:45;;;;;;;11.48;6.07;;;2.80;81.90;;;;;;5017500;28;20400;-72
2022/03/01 08:46:12;;;;;;;12.85;5.72;;;2.90;80.90;;;;;;5019000;28;20052;-74
2022/03/01 08:48:38;;;;;;;13.25;6.22;;;2.80;78.70;;;;;;5017645;28;20020;-72
2022/03/01 08:51:04;;;;;;;17.10;6.70;;;3.00;80.20;;;;;;5013413;28;20583;-72
2022/03/01 08:53:31;;;;;;;16.73;6.03;;;3.10;77.70;;;;;;5013508;28;20110;-72
2022/03/01 08:55:57;;;;;;;10.35;6.18;;;3.20;77.70;;;;;;5011681;28;20038;-73
2022/03/01 08:58:23;;;;;;;15.23;5.88;;;3.20;78.10;;;;;;5005814;28;20072;-74
2022/03/01 09:00:49;;;;;;;9.20;5.38;;;3.10;76.50;;;;;;5027034;28;20066;-74
2022/03/01 09:03:15;;;;;;;13.52;6.57;;;3.10;76.00;;;;;;5011263;28;20026;-75
2022/03/01 09:05:40;;;;;;;11.80;6.32;;;3.10;74.40;;;;;;5011089;28;20660;-74
2022/03/01 09:08:06;;;;;;;11.55;6.25;;;3.00;74.40;;;;;;5008896;28;20026;-74
2022/03/01 09:10:32;;;;;;;15.73;7.05;;;3.10;75.20;;;;;;5009855;28;20029;-74
2022/03/01 09:12:59;;;;;;;12.98;5.35;;;3.10;74.40;;;;;;5009868;28;20052;-74
2022/03/01 09:15:30;;;;;;;11.68;5.47;;;3.20;74.60;;;;;;5009702;28;20085;-73
2022/03/01 09:17:57;;;;;;;13.77;6.40;;;3.20;75.70;;;;;;5009810;28;20020;-74
2022/03/01 09:20:25;;;;;;;13.38;7.03;;;3.30;74.60;;;;;;5009807;28;20018;-72
2022/03/01 09:22:53;;;;;;;21.25;8.20;;;3.20;82.90;;;;;;5009492;28;20386;-73
2022/03/01 09:25:19;;;;;;;15.02;7.35;;;3.20;82.30;;;;;;5010167;28;20022;-73
2022/03/01 09:27:44;;;;;;;19.38;6.32;;;3.20;81.30;;;;;;5009209;28;20040;-73
2022/03/01 09:30:10;;;;;;;14.65;5.78;;;3.20;82.30;;;;;;5009472;28;20422;-73
2022/03/01 09:32:36;;;;;;;13.25;5.72;;;3.30;84.10;;;;;;5010395;28;20104;-73
2022/03/01 09:35:02;;;;;;;12.52;7.05;;;3.30;82.00;;;;;;5009388;28;20053;-72
2022/03/01 09:37:31;;;;;;;11.77;5.88;;;3.40;78.90;;;;;;5008866;28;20022;-74
2022/03/01 09:40:01;;;;;;;16.13;5.57;;;3.60;78.20;;;;;;5009371;28;20029;-72
2022/03/01 09:42:28;;;;;;;11.57;6.60;;;3.70;74.40;;;;;;5008523;28;20057;-72
2022/03/01 09:44:55;;;;;;;17.13;5.68;;;3.70;75.00;;;;;;5009220;28;20111;-73
2022/03/01 09:47:21;;;;;;;10.23;5.97;;;3.80;76.60;;;;;;5008735;28;20041;-73
2022/03/01 09:49:47;;;;;;;18.85;6.72;;;3.80;72.10;;;;;;5009526;28;20435;-73
2022/03/01 09:52:14;;;;;;;13.93;6.22;;;4.00;72.60;;;;;;5008704;28;20411;-73
2022/03/01 09:54:42;;;;;;;15.57;6.30;;;4.10;73.70;;;;;;5008776;28;20026;-75
2022/03/01 09:57:11;;;;;;;15.75;6.30;;;4.10;71.70;;;;;;5010929;28;20694;-73
2022/03/01 09:59:36;;;;;;;14.52;6.38;;;4.10;70.90;;;;;;5011393;28;20014;-72
2022/03/01 10:02:02;;;;;;;12.18;5.47;;;4.30;70.20;;;;;;5011444;28;20113;-73
2022/03/01 10:04:28;;;;;;;12.90;5.90;;;4.50;69.30;;;;;;5009712;28;20517;-73
2022/03/01 10:06:54;;;;;;;14.32;6.05;;;4.60;67.90;;;;;;5010849;28;20034;-73
2022/03/01 10:09:26;;;;;;;16.38;5.43;;;4.70;69.30;;;;;;5009660;28;20022;-74
2022/03/01 10:11:53;;;;;;;14.68;5.28;;;4.80;67.70;;;;;;5008615;28;20051;-74
2022/03/01 10:14:33;;;;;;;16.88;6.63;;;4.80;67.80;;;;;;5012197;28;20029;-74
2022/03/01 10:16:59;;;;;;;11.38;6.20;;;4.90;68.70;;;;;;5008284;28;20026;-74
2022/03/01 10:19:25;;;;;;;16.15;5.65;;;5.00;68.70;;;;;;5008757;28;20053;-76
2022/03/01 10:22:00;;;;;;;10.93;5.88;;;5.10;68.60;;;;;;5007954;28;20479;-74
2022/03/01 10:24:27;;;;;;;11.85;6.13;;;5.20;67.90;;;;;;5007255;28;20093;-74
2022/03/01 10:26:58;;;;;;;12.00;5.32;;;5.30;66.70;;;;;;5006887;28;20038;-74
2022/03/01 10:29:28;;;;;;;14.13;6.60;;;5.30;66.10;;;;;;5008922;28;20022;-73
2022/03/01 10:31:59;;;;;;;12.02;5.65;;;5.30;65.10;;;;;;5010657;28;20296;-74
2022/03/01 10:34:26;;;;;;;13.07;5.40;;;5.40;64.50;;;;;;5009279;28;20021;-74
2022/03/01 10:36:52;;;;;;;13.93;5.80;;;5.40;65.20;;;;;;5009670;28;20381;-74
2022/03/01 10:39:20;;;;;;;12.68;5.57;;;5.50;64.00;;;;;;5009080;28;20105;-74
2022/03/01 10:41:51;;;;;;;13.25;6.05;;;5.70;63.50;;;;;;5009503;28;20088;-74
2022/03/01 10:44:26;;;;;;;10.80;5.47;;;5.80;64.10;;;;;;5010263;28;20103;-74
2022/03/01 10:46:54;;;;;;;11.60;5.90;;;5.80;63.20;;;;;;5009675;28;20554;-74
2022/03/01 10:49:24;;;;;;;9.70;5.32;;;5.70;62.00;;;;;;5009234;28;20030;-74
2022/03/01 10:52:03;;;;;;;9.80;5.25;;;5.60;63.60;;;;;;5009660;28;20022;-74
2022/03/01 10:54:34;;;;;;;11.55;4.63;;;5.60;64.50;;;;;;5009766;28;20334;-74
2022/03/01 10:57:03;;;;;;;8.73;4.78;;;5.70;64.20;;;;;;5010213;28;20091;-75
2022/03/01 10:59:30;;;;;;;9.45;6.00;;;5.80;64.40;;;;;;5004804;28;20108;-75
2022/03/01 11:01:57;;;;;;;16.30;5.68;;;5.90;62.30;;;;;;5007879;28;20026;-73
2022/03/01 11:04:25;;;;;;;9.90;5.35;;;5.90;62.40;;;;;;5006187;28;20030;-75
2022/03/01 11:06:53;;;;;;;11.10;5.07;;;5.90;61.10;;;;;;5013684;28;20072;-74
2022/03/01 11:09:21;;;;;;;8.68;5.28;;;5.90;60.70;;;;;;5017668;28;20034;-74
2022/03/01 11:11:49;;;;;;;8.75;4.45;;;9.10;64.60;;;;;;5012191;28;20049;-78
2022/03/01 11:14:21;;;;;;;13.45;5.40;;;6.10;62.20;;;;;;5012946;28;20025;-74
2022/03/01 11:16:56;;;;;;;14.63;5.68;;;6.10;60.30;;;;;;5008528;28;20495;-75
2022/03/01 11:19:46;;;;;;;14.73;5.38;;;6.20;61.70;;;;;;5011228;28;20044;-74
2022/03/01 11:22:26;;;;;;;9.57;5.22;;;6.30;61.80;;;;;;5005651;28;20029;-75
2022/03/01 11:24:52;;;;;;;18.33;5.85;;;6.30;61.80;;;;;;5008171;28;20437;-73
2022/03/01 11:27:23;;;;;;;9.80;4.53;;;6.30;62.50;;;;;;5009992;28;20042;-74
2022/03/01 11:29:50;;;;;;;9.65;4.82;;;6.30;62.30;;;;;;5009437;28;20018;-73
2022/03/01 11:32:20;;;;;;;12.15;4.95;;;6.50;62.70;;;;;;5009184;28;20109;-74
2022/03/01 11:34:46;;;;;;;13.50;5.10;;;6.50;60.50;;;;;;5007609;28;20029;-74
2022/03/01 11:37:22;;;;;;;10.95;5.43;;;6.70;61.20;;;;;;5006923;28;20045;-74
2022/03/01 11:39:56;;;;;;;8.63;5.00;;;6.70;59.60;;;;;;5007408;28;20022;-76
2022/03/01 11:42:21;;;;;;;12.63;5.43;;;8.50;60.20;;;;;;5007642;28;20021;-78
2022/03/01 11:44:55;;;;;;;9.82;5.05;;;6.70;61.20;;;;;;5008170;28;20536;-74
2022/03/01 11:47:27;;;;;;;13.95;5.47;;;6.70;61.50;;;;;;5007980;28;20053;-75
2022/03/01 11:49:54;;;;;;;12.77;4.68;;;6.70;61.10;;;;;;5007016;28;20499;-73
2022/03/01 11:52:23;;;;;;;10.57;4.82;;;6.70;61.30;;;;;;5007546;28;20422;-73
2022/03/01 11:54:52;;;;;;;11.02;5.03;;;6.80;59.30;;;;;;5006956;28;20096;-73
2022/03/01 11:57:25;;;;;;;9.75;4.40;;;6.90;60.10;;;;;;5010357;28;20030;-73
2022/03/01 11:59:53;;;;;;;12.68;4.72;;;7.10;60.50;;;;;;4993750;28;20053;-74
2022/03/01 12:02:19;;;;;;;7.95;4.55;;;7.20;62.40;;;;;;5008612;28;20021;-73
2022/03/01 12:04:47;;;;;;;11.73;5.55;;;7.30;60.90;;;;;;5010021;28;20022;-73
2022/03/01 12:07:24;;;;;;;12.15;5.32;;;7.40;60.80;;;;;;5008520;28;20066;-74
2022/03/01 12:09:59;;;;;;;10.23;4.85;;;7.20;60.50;;;;;;5006040;28;20554;-74
2022/03/01 12:12:43;;;;;;;12.07;5.78;;;7.40;60.50;;;;;;5005703;28;20036;-73
2022/03/01 12:15:10;;;;;;;10.93;4.82;;;7.80;60.70;;;;;;5005321;28;20029;-73
2022/03/01 12:17:44;;;;;;;7.82;4.22;;;7.90;58.20;;;;;;5006341;28;20029;-75
2022/03/01 12:20:12;;;;;;;13.10;5.90;;;7.90;57.50;;;;;;5006076;28;20068;-73
2022/03/01 12:22:56;;;;;;;12.02;5.10;;;7.70;57.40;;;;;;5005042;28;20502;-73
2022/03/01 12:25:23;;;;;;;12.25;5.15;;;7.70;58.30;;;;;;5005751;28;20113;-73
2022/03/01 12:27:50;;;;;;;12.82;5.57;;;7.40;58.50;;;;;;5004668;28;20085;-73
2022/03/01 12:30:22;;;;;;;10.02;4.95;;;7.60;58.90;;;;;;5007271;28;20026;-76
2022/03/01 12:32:50;;;;;;;13.00;5.53;;;7.80;58.60;;;;;;5007705;28;20325;-73
2022/03/01 12:35:16;;;;;;;10.30;4.32;;;7.80;58.90;;;;;;5008704;28;20014;-76
2022/03/01 12:37:41;;;;;;;13.07;5.50;;;8.10;57.40;;;;;;5006425;28;20395;-75
2022/03/01 12:40:08;;;;;;;11.40;4.63;;;8.90;57.60;;;;;;5006060;28;20394;-73
2022/03/01 12:42:36;;;;;;;16.30;5.53;;;9.60;56.30;;;;;;5005601;28;20184;-77
2022/03/01 12:45:03;;;;;;;10.90;5.45;;;10.40;54.70;;;;;;5005806;28;20068;-73